Time;durP1;ratioP1;P1;durP2;ratioP2;P2;SDS_P1;SDS_P2;PMS_P1;PMS_P2;Temp;Humidity;BMP_temperature;BMP_pressure;BME280_temperature;BME280_humidity;BME280_pressure;Samples;Min_cycle;Max_cycle;Signal;HPM_P1;HPM_P2
2021/03/11 00:00:11;;;;;;;92.72;39.00;;;;;;;-5.39;65.07;98449.69;1747360;82;21423;-72
2021/03/11 00:02:40;;;;;;;105.10;42.03;;;;;;;-5.49;65.87;98441.13;1724419;82;21114;-72
2021/03/11 00:05:10;;;;;;;100.75;41.37;;;;;;;-5.57;66.66;98441.63;1747261;82;21143;-72
2021/03/11 00:07:37;;;;;;;99.28;37.60;;;;;;;-5.64;67.10;98429.59;1747147;82;21058;-72
2021/03/11 00:10:10;;;;;;;91.32;38.83;;;;;;;-5.70;67.84;98427.64;1747279;82;21522;-72
2021/03/11 00:12:43;;;;;;;90.30;38.48;;;;;;;-5.75;67.33;98438.68;1747373;82;21511;-73
2021/03/11 00:15:18;;;;;;;86.47;35.58;;;;;;;-5.79;68.24;98426.81;1747307;82;20995;-71
2021/03/11 00:17:45;;;;;;;90.75;37.60;;;;;;;-5.83;68.28;98421.52;1747257;82;21267;-73
2021/03/11 00:20:14;;;;;;;37.83;15.32;;;;;;;-5.80;66.55;98413.29;1747283;82;21037;-73
2021/03/11 00:22:40;;;;;;;84.97;35.95;;;;;;;-5.80;65.81;98417.75;1747418;82;21086;-73
2021/03/11 00:25:10;;;;;;;105.65;38.70;;;;;;;-5.89;65.90;98412.14;1747247;82;21026;-73
2021/03/11 00:27:37;;;;;;;63.10;27.90;;;;;;;-6.02;68.17;98414.80;1749231;81;21078;-73
2021/03/11 00:30:05;;;;;;;83.82;34.60;;;;;;;-5.97;66.44;98409.05;1757750;81;22050;-73
2021/03/11 00:32:31;;;;;;;109.27;47.10;;;;;;;-5.99;66.36;98407.86;1788888;80;21201;-72
2021/03/11 00:34:58;;;;;;;74.95;30.43;;;;;;;-6.02;66.54;98398.97;1788847;78;21106;-73
2021/03/11 00:37:24;;;;;;;85.03;38.73;;;;;;;-6.02;66.45;98409.52;1788843;80;21136;-73
2021/03/11 00:39:50;;;;;;;99.22;40.78;;;;;;;-6.05;66.29;98395.35;1788871;78;21018;-73
2021/03/11 00:42:16;;;;;;;108.97;42.38;;;;;;;-6.15;69.03;98392.05;1788835;80;21277;-72
2021/03/11 00:44:42;;;;;;;92.60;42.08;;;;;;;-6.29;69.10;98396.66;1788792;78;21519;-73
2021/03/11 00:47:08;;;;;;;98.30;43.68;;;;;;;-6.44;69.16;98400.42;1788825;80;21545;-73
2021/03/11 00:49:35;;;;;;;96.45;40.35;;;;;;;-6.55;69.32;98402.88;1788899;78;21455;-73
2021/03/11 00:52:02;;;;;;;100.20;39.35;;;;;;;-6.62;69.02;98401.05;1788900;80;21122;-73
2021/03/11 00:54:28;;;;;;;102.10;45.08;;;;;;;-6.72;70.77;98398.56;1788899;78;21386;-72
2021/03/11 00:56:55;;;;;;;93.27;36.65;;;;;;;-6.82;70.81;98394.75;1788818;80;21102;-73
2021/03/11 00:59:21;;;;;;;99.00;37.75;;;;;;;-6.82;70.52;98393.92;1788873;78;21039;-73
2021/03/11 01:01:48;;;;;;;99.97;41.55;;;;;;;-6.82;70.67;98380.25;1788940;80;21130;-73
2021/03/11 01:04:14;;;;;;;87.33;40.98;;;;;;;-6.79;70.98;98378.27;1788809;78;21059;-73
2021/03/11 01:06:40;;;;;;;93.95;39.67;;;;;;;-6.76;71.75;98384.53;1788836;80;21144;-73
2021/03/11 01:09:06;;;;;;;81.75;37.73;;;;;;;-6.76;71.64;98385.84;1788735;78;21436;-73
2021/03/11 01:11:33;;;;;;;82.92;37.03;;;;;;;-6.78;71.82;98391.78;1788933;80;21113;-73
2021/03/11 01:13:59;;;;;;;86.47;37.42;;;;;;;-6.82;70.68;98389.48;1788881;78;21207;-72
2021/03/11 01:16:25;;;;;;;89.07;37.63;;;;;;;-6.91;71.85;98387.81;1788954;80;21128;-73
2021/03/11 01:18:51;;;;;;;91.05;36.58;;;;;;;-6.95;69.94;98385.63;1788896;78;21515;-73
2021/03/11 01:21:18;;;;;;;96.35;36.15;;;;;;;-7.08;71.07;98383.96;1788767;80;21126;-73
2021/03/11 01:23:44;;;;;;;80.60;35.80;;;;;;;-7.24;72.46;98383.40;1788808;78;21141;-73
2021/03/11 01:26:10;;;;;;;104.25;39.73;;;;;;;-7.26;73.03;98378.76;1788828;80;21126;-73
2021/03/11 01:28:36;;;;;;;83.27;37.35;;;;;;;-7.17;72.31;98385.73;1786845;79;21372;-73
2021/03/11 01:31:02;;;;;;;78.28;34.92;;;;;;;-7.18;72.48;98387.55;1785246;80;21186;-73
2021/03/11 01:33:28;;;;;;;74.82;35.25;;;;;;;-7.13;72.94;98381.30;1785112;80;21067;-73
2021/03/11 01:35:55;;;;;;;88.62;38.88;;;;;;;-7.11;72.52;98380.64;1785187;79;21122;-73
2021/03/11 01:38:21;;;;;;;76.30;34.70;;;;;;;-7.14;72.27;98377.51;1785255;80;21043;-73
2021/03/11 01:40:47;;;;;;;75.17;31.52;;;;;;;-7.20;72.69;98371.55;1785209;79;21008;-73
2021/03/11 01:43:13;;;;;;;38.58;13.80;;;;;;;-7.14;70.58;98359.07;1785289;80;21191;-73
2021/03/11 01:45:39;;;;;;;32.40;18.32;;;;;;;-7.01;69.74;98355.47;1785206;79;21653;-73
2021/03/11 01:48:06;;;;;;;53.30;26.07;;;;;;;-6.90;69.75;98343.83;1785240;80;21130;-73
2021/03/11 01:50:32;;;;;;;52.83;19.45;;;;;;;-6.85;69.51;98350.74;1785230;79;21157;-73
2021/03/11 01:52:59;;;;;;;83.07;35.35;;;;;;;-6.81;69.34;98348.13;1785286;80;21008;-72
2021/03/11 01:55:26;;;;;;;74.72;35.52;;;;;;;-6.79;69.40;98344.84;1785164;79;21190;-73
2021/03/11 01:57:52;;;;;;;105.90;47.17;;;;;;;-6.78;70.53;98351.75;1785118;80;21508;-73
2021/03/11 02:00:19;;;;;;;88.17;37.08;;;;;;;-6.81;70.93;98348.13;1785246;79;21480;-73
2021/03/11 02:02:45;;;;;;;94.85;39.05;;;;;;;-6.91;70.01;98348.77;1785259;80;21151;-73
2021/03/11 02:05:14;;;;;;;85.15;39.13;;;;;;;-7.04;69.73;98338.68;1785190;79;21027;-73
2021/03/11 02:07:41;;;;;;;92.67;38.08;;;;;;;-7.20;71.90;98326.28;1785187;80;21983;-73
2021/03/11 02:10:09;;;;;;;78.80;34.55;;;;;;;-7.23;71.63;98334.51;1785164;79;21021;-73
2021/03/11 02:13:13;;;;;;;48.13;19.75;;;;;;;-7.21;70.49;98326.45;1785400;80;21126;-73
2021/03/11 02:16:02;;;;;;;46.55;18.50;;;;;;;-7.21;69.50;98327.27;1785163;79;21113;-72
2021/03/11 02:18:47;;;;;;;75.17;26.73;;;;;;;-7.17;69.34;98324.66;1785374;80;21039;-72
2021/03/11 02:21:23;;;;;;;52.15;22.45;;;;;;;-7.16;69.41;98319.72;1785204;80;21238;-72
2021/03/11 02:24:16;;;;;;;57.17;21.57;;;;;;;-7.07;69.46;98316.63;1785199;79;21413;-72
2021/03/11 02:27:11;;;;;;;73.30;29.32;;;;;;;-7.02;69.42;98310.85;1784726;80;21225;-72
2021/03/11 02:29:39;;;;;;;83.12;35.78;;;;;;;-7.00;69.46;98314.17;1756566;80;21463;-71
2021/03/11 02:32:08;;;;;;;92.95;38.23;;;;;;;-7.05;70.07;98311.19;1785520;80;21063;-72
2021/03/11 02:34:37;;;;;;;60.28;23.65;;;;;;;-7.11;70.03;98306.88;1785191;79;22047;-72
2021/03/11 02:37:10;;;;;;;102.95;44.73;;;;;;;-7.06;69.35;98302.45;1785243;80;21110;-72
2021/03/11 02:39:36;;;;;;;80.72;36.20;;;;;;;-7.19;70.86;98301.59;1756795;80;21114;-72
2021/03/11 02:42:03;;;;;;;82.70;35.50;;;;;;;-7.33;71.47;98296.13;1785283;80;21538;-72
2021/03/11 02:44:30;;;;;;;85.65;32.50;;;;;;;-7.43;72.04;98300.22;1785197;79;21015;-72
2021/03/11 02:46:56;;;;;;;96.02;38.33;;;;;;;-7.55;72.13;98298.83;1785143;80;21182;-72
2021/03/11 02:49:22;;;;;;;99.32;38.67;;;;;;;-7.58;72.51;98299.98;1785048;79;21118;-72
2021/03/11 02:51:49;;;;;;;81.82;32.35;;;;;;;-7.62;72.97;98292.55;1785246;80;21527;-72
2021/03/11 02:54:15;;;;;;;112.60;44.27;;;;;;;-7.65;72.77;98293.70;1756619;80;21102;-72
2021/03/11 02:56:41;;;;;;;116.60;45.55;;;;;;;-7.70;72.27;98282.31;1785267;80;21134;-72
2021/03/11 02:59:08;;;;;;;101.72;40.00;;;;;;;-7.72;72.47;98279.02;1785090;79;21254;-72
2021/03/11 03:01:34;;;;;;;95.12;40.38;;;;;;;-7.68;72.77;98273.80;1785107;80;21523;-72
2021/03/11 03:04:00;;;;;;;37.48;12.10;;;;;;;-7.63;72.91;98264.09;1785210;79;21578;-72
2021/03/11 03:06:26;;;;;;;50.38;13.25;;;;;;;-7.48;70.43;98266.95;1785242;80;21546;-72
2021/03/11 03:08:52;;;;;;;42.55;11.63;;;;;;;-7.43;70.49;98256.28;1785200;79;21110;-72
2021/03/11 03:11:18;;;;;;;58.28;25.45;;;;;;;-7.39;70.37;98252.83;1785137;80;21272;-72
2021/03/11 03:13:44;;;;;;;69.17;27.77;;;;;;;-7.39;70.32;98255.45;1785139;79;21130;-72
2021/03/11 03:16:12;;;;;;;112.85;44.80;;;;;;;-7.36;70.33;98258.25;1785219;80;21158;-72
2021/03/11 03:18:39;;;;;;;104.07;45.17;;;;;;;-7.36;70.18;98260.39;1785134;79;21428;-72
2021/03/11 03:21:08;;;;;;;102.62;39.00;;;;;;;-7.28;70.30;98255.64;1785220;80;21059;-72
2021/03/11 03:23:34;;;;;;;94.35;36.60;;;;;;;-7.27;71.00;98249.39;1756555;80;21277;-71
2021/03/11 03:26:00;;;;;;;66.30;30.43;;;;;;;-7.30;70.52;98247.09;1785181;80;21130;-72
2021/03/11 03:28:27;;;;;;;83.10;34.83;;;;;;;-7.33;70.61;98242.16;1777200;80;21216;-71
2021/03/11 03:30:53;;;;;;;90.53;38.02;;;;;;;-7.39;70.57;98231.76;1738683;82;21126;-72
2021/03/11 03:33:19;;;;;;;82.78;33.78;;;;;;;-7.41;70.85;98235.05;1738683;82;21116;-72
2021/03/11 03:35:45;;;;;;;120.15;42.58;;;;;;;-7.47;71.10;98234.38;1738762;82;21203;-72
2021/03/11 03:38:13;;;;;;;106.60;41.28;;;;;;;-7.60;71.86;98230.07;1738601;82;21148;-72
2021/03/11 03:40:39;;;;;;;102.35;37.50;;;;;;;-7.59;70.92;98226.45;1738651;82;21081;-72
2021/03/11 03:43:27;;;;;;;89.50;33.73;;;;;;;-7.62;71.59;98224.94;1738714;82;21121;-72
2021/03/11 03:46:05;;;;;;;80.15;33.95;;;;;;;-7.68;72.06;98221.16;1738918;82;21076;-72
2021/03/11 03:48:50;;;;;;;85.75;33.60;;;;;;;-7.72;71.36;98225.56;1738657;82;21510;-72
2021/03/11 03:51:18;;;;;;;75.87;34.27;;;;;;;-7.72;71.46;98223.77;1738675;82;21076;-72
2021/03/11 03:53:48;;;;;;;107.10;37.53;;;;;;;-7.68;70.52;98231.69;1738768;82;21082;-72
2021/03/11 03:56:38;;;;;;;83.82;34.38;;;;;;;-7.63;71.69;98231.19;1738610;82;21116;-72
2021/03/11 03:59:09;;;;;;;102.27;39.58;;;;;;;-7.55;71.72;98234.34;1738765;82;21426;-72
2021/03/11 04:01:38;;;;;;;65.83;27.60;;;;;;;-7.44;70.53;98240.13;1738774;82;21204;-73
2021/03/11 04:04:06;;;;;;;56.35;25.88;;;;;;;-7.37;69.75;98241.63;1738724;82;21078;-73
2021/03/11 04:06:32;;;;;;;197.25;70.90;;;;;;;-7.30;69.58;98247.91;1738871;82;21092;-73
2021/03/11 04:09:01;;;;;;;60.25;27.58;;;;;;;-7.30;69.50;98236.55;1738577;82;21175;-72
2021/03/11 04:11:27;;;;;;;72.92;31.97;;;;;;;-7.31;69.35;98234.91;1738891;82;21073;-72
2021/03/11 04:13:53;;;;;;;88.75;32.33;;;;;;;-7.39;69.84;98232.58;1738746;82;21204;-72
2021/03/11 04:16:19;;;;;;;74.62;35.35;;;;;;;-7.41;69.75;98237.20;1711545;82;21168;-72
2021/03/11 04:18:46;;;;;;;75.15;32.15;;;;;;;-7.55;70.29;98239.61;1738733;82;21580;-72
2021/03/11 04:21:12;;;;;;;70.67;28.90;;;;;;;-7.62;69.92;98237.28;1738763;82;21117;-72
2021/03/11 04:23:38;;;;;;;64.22;31.95;;;;;;;-7.72;69.80;98236.09;1738597;82;21148;-72
2021/03/11 04:26:05;;;;;;;73.60;31.93;;;;;;;-7.75;71.16;98226.72;1738697;82;21529;-72
2021/03/11 04:28:34;;;;;;;68.92;28.92;;;;;;;-7.76;71.27;98232.97;1739649;80;21544;-72
2021/03/11 04:31:01;;;;;;;75.47;33.48;;;;;;;-7.79;72.41;98236.39;1759758;81;21096;-72
2021/03/11 04:33:27;;;;;;;83.27;38.00;;;;;;;-7.90;72.80;98230.92;1729566;83;21091;-73
2021/03/11 04:35:53;;;;;;;118.67;48.17;;;;;;;-7.97;73.18;98230.72;1729022;81;21099;-73
2021/03/11 04:38:20;;;;;;;96.78;38.92;;;;;;;-8.09;73.03;98228.55;1759833;81;21211;-73
2021/03/11 04:40:46;;;;;;;93.35;36.53;;;;;;;-8.11;73.45;98221.30;1729609;81;21100;-73
2021/03/11 04:43:12;;;;;;;101.35;37.30;;;;;;;-8.10;72.88;98212.44;1759943;81;21187;-73
2021/03/11 04:45:41;;;;;;;97.22;35.75;;;;;;;-8.16;73.36;98212.56;1729572;81;21101;-73
2021/03/11 04:48:08;;;;;;;72.87;28.17;;;;;;;-8.14;73.01;98211.08;1759904;81;21088;-73
2021/03/11 04:50:39;;;;;;;71.53;33.08;;;;;;;-8.15;73.13;98200.23;1729647;81;21477;-72
2021/03/11 04:53:06;;;;;;;82.50;33.58;;;;;;;-8.20;74.19;98199.87;1759802;81;21104;-73
2021/03/11 04:55:33;;;;;;;81.80;33.58;;;;;;;-8.16;73.54;98195.95;1729548;81;21137;-73
2021/03/11 04:58:01;;;;;;;64.05;25.80;;;;;;;-8.14;73.89;98193.50;1734298;81;21137;-73
2021/03/11 05:00:27;;;;;;;70.87;30.88;;;;;;;-8.09;72.71;98196.98;1729666;81;21411;-73
2021/03/11 05:02:53;;;;;;;61.45;27.37;;;;;;;-8.18;73.74;98189.55;1759844;81;21198;-72
2021/03/11 05:05:36;;;;;;;74.92;31.80;;;;;;;-8.16;73.90;98187.58;1729586;81;21097;-73
2021/03/11 05:08:12;;;;;;;86.63;35.80;;;;;;;-8.03;74.68;98193.70;1847325;76;28305;-71
2021/03/11 05:10:39;;;;;;;89.45;34.30;;;;;;;-8.01;74.32;98191.27;1786004;78;21102;-71
2021/03/11 05:13:06;;;;;;;86.05;32.83;;;;;;;-8.07;74.06;98191.06;1785913;80;21197;-72
2021/03/11 05:15:32;;;;;;;92.92;31.73;;;;;;;-8.11;73.69;98190.57;1755249;80;20924;-72
2021/03/11 05:17:58;;;;;;;94.37;34.73;;;;;;;-8.13;73.63;98183.30;1785875;80;21047;-73
2021/03/11 05:23:02;;;;;;;85.03;34.48;;;;;;;-8.00;73.55;98178.45;1847663;76;28465;-72
2021/03/11 05:25:28;;;;;;;78.15;29.10;;;;;;;-8.00;73.02;98177.13;1793193;79;20896;-73
2021/03/11 05:27:54;;;;;;;71.57;30.20;;;;;;;-7.98;72.50;98169.89;1755445;80;22075;-73
2021/03/11 05:30:21;;;;;;;94.72;41.02;;;;;;;-8.00;72.41;98170.55;1785901;79;21484;-73
2021/03/11 05:32:47;;;;;;;68.40;30.48;;;;;;;-8.05;73.78;98168.05;1785858;79;21031;-72
2021/03/11 05:35:14;;;;;;;79.37;30.92;;;;;;;-7.98;71.77;98167.76;1785861;79;20981;-72
2021/03/11 05:37:40;;;;;;;104.78;32.53;;;;;;;-8.01;73.72;98157.56;1785912;80;20996;-72
2021/03/11 05:40:11;;;;;;;85.12;31.48;;;;;;;-7.90;72.32;98149.87;1785972;79;21198;-73
2021/03/11 05:42:38;;;;;;;85.50;32.48;;;;;;;-7.78;73.68;98152.03;1785877;80;21452;-72
2021/03/11 05:45:08;;;;;;;68.55;29.00;;;;;;;-7.55;73.24;98146.98;1785953;79;21000;-72
2021/03/11 05:47:35;;;;;;;111.88;41.35;;;;;;;-7.35;73.06;98144.86;1785971;80;21110;-72
2021/03/11 05:50:05;;;;;;;72.47;35.03;;;;;;;-7.22;72.45;98149.17;1755649;80;21396;-72
2021/03/11 05:52:33;;;;;;;86.25;35.40;;;;;;;-7.19;72.38;98142.73;1785965;80;21179;-72
2021/03/11 05:54:59;;;;;;;82.55;28.80;;;;;;;-7.18;72.46;98142.60;1785743;79;21492;-72
2021/03/11 05:57:25;;;;;;;90.40;32.65;;;;;;;-7.12;71.70;98137.15;1785864;80;21113;-72
2021/03/11 05:59:55;;;;;;;78.20;29.30;;;;;;;-7.19;72.87;98134.84;1785947;79;21392;-72
2021/03/11 06:02:23;;;;;;;65.67;28.92;;;;;;;-7.11;72.29;98128.25;1785810;80;21098;-72
2021/03/11 06:04:52;;;;;;;61.23;28.60;;;;;;;-7.00;71.32;98131.89;1786088;79;22134;-72
2021/03/11 06:07:21;;;;;;;83.05;34.80;;;;;;;-6.94;71.69;98129.89;1785795;80;21508;-73
2021/03/11 06:09:47;;;;;;;77.30;33.65;;;;;;;-6.87;71.89;98128.73;1786034;79;21090;-72
2021/03/11 06:12:14;;;;;;;78.00;34.80;;;;;;;-6.76;72.03;98133.66;1785848;80;21098;-73
2021/03/11 06:14:40;;;;;;;63.98;31.55;;;;;;;-6.56;72.07;98126.22;1785792;79;21086;-73
2021/03/11 06:17:07;;;;;;;73.60;29.63;;;;;;;-6.36;71.18;98126.65;1785866;80;21269;-72
2021/03/11 06:19:34;;;;;;;67.55;29.23;;;;;;;-6.14;71.14;98125.92;1785800;79;21119;-72
2021/03/11 06:22:02;;;;;;;115.97;48.87;;;;;;;-5.93;70.83;98110.80;1792446;79;20982;-72
2021/03/11 06:24:28;;;;;;;118.30;46.25;;;;;;;-5.64;70.67;98111.92;1800375;78;21411;-72
2021/03/11 06:26:54;;;;;;;212.60;74.45;;;;;;;-5.33;69.66;98108.74;1800524;79;21534;-73
2021/03/11 06:29:36;;;;;;;94.90;39.42;;;;;;;-5.12;68.69;98106.78;1800283;78;21202;-72
2021/03/11 06:32:03;;;;;;;95.28;36.77;;;;;;;-4.94;68.21;98104.63;1799256;79;21087;-71
2021/03/11 06:37:20;;;;;;;121.17;47.27;;;;;;;-4.40;66.31;98100.94;1847722;76;22553;-70
2021/03/11 06:39:46;;;;;;;182.05;63.90;;;;;;;-4.40;65.21;98095.66;1772137;80;21035;-72
2021/03/11 06:42:13;;;;;;;152.90;52.50;;;;;;;-4.26;65.53;98092.19;1785898;80;21195;-72
2021/03/11 06:44:43;;;;;;;73.85;33.05;;;;;;;-4.06;65.30;98077.37;1755419;80;21491;-72
2021/03/11 06:47:13;;;;;;;113.35;42.13;;;;;;;-3.90;65.01;98068.91;1785901;80;20910;-72
2021/03/11 06:49:58;;;;;;;59.48;24.67;;;;;;;-3.73;64.02;98071.64;1785623;80;20967;-72
2021/03/11 06:52:24;;;;;;;78.47;33.05;;;;;;;-3.59;63.87;98072.11;1785920;80;21043;-72
2021/03/11 06:55:10;;;;;;;172.75;43.48;;;;;;;-3.37;63.55;98066.80;1785798;80;21950;-72
2021/03/11 06:57:38;;;;;;;62.78;27.05;;;;;;;-3.22;63.80;98072.85;1785854;80;20902;-71
2021/03/11 07:00:16;;;;;;;;;;;;;;;-3.03;62.76;98070.05;1788325;80;21039;-72
2021/03/11 07:03:00;;;;;;;126.92;44.58;;;;;;;-2.90;62.42;98070.16;1785905;80;20354;-71
2021/03/11 07:05:27;;;;;;;65.20;29.70;;;;;;;-2.72;62.48;98061.72;1785899;80;21015;-71
2021/03/11 07:08:14;;;;;;;129.10;51.95;;;;;;;-2.39;61.80;98069.89;1785857;80;22327;-71
2021/03/11 07:10:42;;;;;;;74.55;30.90;;;;;;;-1.93;61.01;98066.11;1785698;80;20991;-72
2021/03/11 07:13:08;;;;;;;63.00;29.02;;;;;;;-1.50;60.36;98059.98;1785853;80;21114;-72
2021/03/11 07:15:36;;;;;;;123.35;48.73;;;;;;;-1.13;59.93;98059.11;1785857;80;21439;-72
2021/03/11 07:18:08;;;;;;;154.03;67.47;;;;;;;-0.75;60.19;98054.52;1785964;80;20967;-72
2021/03/11 07:20:35;;;;;;;75.17;39.65;;;;;;;-0.26;57.18;98051.83;1785810;80;21269;-72
2021/03/11 07:23:12;;;;;;;62.65;31.35;;;;;;;0.04;57.99;98034.31;1785808;80;21079;-72
2021/03/11 07:25:43;;;;;;;101.97;47.50;;;;;;;0.36;57.45;98031.70;1785849;80;21141;-71
2021/03/11 07:28:26;;;;;;;61.73;30.02;;;;;;;0.60;56.39;98024.27;1784893;80;21110;-72
2021/03/11 07:31:00;;;;;;;78.87;30.30;;;;;;;0.93;54.34;98026.66;1785888;80;21400;-72
2021/03/11 07:33:29;;;;;;;60.48;28.90;;;;;;;1.09;53.95;98011.44;1785914;80;22105;-71
2021/03/11 07:35:57;;;;;;;;;;;;;;;1.02;53.17;98010.68;1792940;79;21471;-72
2021/03/11 07:38:27;;;;;;;47.90;27.07;;;;;;;0.87;51.96;98005.40;1800386;79;20485;-72
2021/03/11 07:40:58;;;;;;;55.33;26.23;;;;;;;1.17;52.91;97994.86;1799112;79;21042;-72
2021/03/11 07:43:26;;;;;;;73.78;29.10;;;;;;;1.35;54.19;97996.20;1800406;79;21048;-72
2021/03/11 07:46:03;;;;;;;47.95;25.12;;;;;;;1.41;53.87;98000.67;1800308;79;21195;-72
2021/03/11 07:48:30;;;;;;;71.75;36.23;;;;;;;1.53;51.78;97999.41;1799837;79;21510;-71
2021/03/11 07:50:56;;;;;;;49.70;24.43;;;;;;;1.25;51.82;98001.25;1799796;79;21046;-71
2021/03/11 07:53:24;;;;;;;97.70;35.58;;;;;;;1.16;51.25;97996.70;1799766;79;21090;-71
2021/03/11 07:55:51;;;;;;;56.28;27.95;;;;;;;1.25;51.05;98000.72;1799714;79;21086;-71
2021/03/11 07:58:20;;;;;;;110.92;46.28;;;;;;;1.39;50.57;97999.56;1799770;79;21502;-71
2021/03/11 08:00:46;;;;;;;;;;;;;;;1.46;50.83;97987.48;1802439;79;21035;-71
2021/03/11 08:03:25;;;;;;;88.10;51.80;;;;;;;1.76;51.65;97990.22;1799877;79;20744;-71
2021/03/11 08:05:51;;;;;;;97.62;52.33;;;;;;;2.16;51.09;97987.05;1799832;79;21137;-71
2021/03/11 08:08:25;;;;;;;114.97;60.45;;;;;;;2.58;50.96;97989.75;1799833;79;21125;-72
2021/03/11 08:11:00;;;;;;;109.60;60.52;;;;;;;2.94;50.00;97983.41;1799836;79;21272;-71
2021/03/11 08:13:36;;;;;;;48.78;27.15;;;;;;;3.24;49.38;97988.11;1799751;79;21102;-72
2021/03/11 08:16:19;;;;;;;112.50;69.12;;;;;;;3.60;48.12;97980.89;1799827;79;21064;-72
2021/03/11 08:18:47;;;;;;;116.47;37.48;;;;;;;4.02;48.55;97968.61;1799861;79;21473;-71
2021/03/11 08:21:27;;;;;;;127.95;45.20;;;;;;;4.43;44.60;97966.13;1799842;79;21042;-72
2021/03/11 08:23:57;;;;;;;53.28;29.48;;;;;;;4.89;46.65;97962.90;1798414;79;21237;-70
2021/03/11 08:26:44;;;;;;;69.90;32.73;;;;;;;5.38;44.70;97959.85;1799780;79;21062;-70
2021/03/11 08:29:22;;;;;;;65.35;34.65;;;;;;;5.33;44.91;97954.42;1799763;79;21114;-72
2021/03/11 08:31:50;;;;;;;86.35;31.85;;;;;;;5.73;43.56;97954.16;1799864;79;21549;-71
2021/03/11 08:34:38;;;;;;;51.10;27.48;;;;;;;6.08;43.10;97952.98;1798987;79;21539;-71
2021/03/11 08:37:22;;;;;;;54.03;38.80;;;;;;;6.53;42.75;97937.83;1797880;79;22012;-72
2021/03/11 08:39:49;;;;;;;49.38;27.70;;;;;;;6.22;37.17;97932.67;1797179;79;21075;-72
2021/03/11 08:42:47;;;;;;;66.85;31.02;;;;;;;6.40;36.83;97927.47;1797186;79;21022;-72
2021/03/11 08:45:40;;;;;;;57.88;30.17;;;;;;;6.91;37.49;97921.98;1797444;79;21018;-71
2021/03/11 08:48:18;;;;;;;60.90;37.38;;;;;;;7.41;36.58;97919.87;1797229;79;21773;-72
2021/03/11 08:50:51;;;;;;;61.80;30.45;;;;;;;7.83;38.16;97904.97;1797217;79;21141;-70
2021/03/11 08:53:42;;;;;;;47.40;28.92;;;;;;;8.64;38.70;97900.31;1797252;79;21066;-71
2021/03/11 08:56:22;;;;;;;46.90;27.52;;;;;;;9.10;37.29;97889.46;1797141;79;21515;-71
2021/03/11 08:59:09;;;;;;;60.98;30.97;;;;;;;9.00;33.02;97876.78;1797149;79;21091;-69
2021/03/11 09:01:41;;;;;;;47.20;31.40;;;;;;;9.55;35.62;97876.35;1797292;79;21415;-68
2021/03/11 09:04:37;;;;;;;46.85;27.55;;;;;;;8.92;30.58;97871.38;1797303;79;21269;-69
2021/03/11 09:07:11;;;;;;;37.98;27.13;;;;;;;8.88;33.51;97861.38;1797232;79;21046;-69
2021/03/11 09:09:44;;;;;;;50.63;27.20;;;;;;;7.98;32.29;97855.64;1797170;79;21097;-71
2021/03/11 09:12:32;;;;;;;47.40;25.95;;;;;;;7.72;36.34;97848.02;1796842;79;21141;-71
2021/03/11 09:15:00;;;;;;;37.85;23.73;;;;;;;7.33;36.74;97841.12;1797192;79;21094;-72
2021/03/11 09:17:33;;;;;;;33.18;21.42;;;;;;;6.85;36.50;97836.84;1797198;79;21197;-72
2021/03/11 09:20:07;;;;;;;42.27;21.48;;;;;;;6.73;35.87;97841.05;1797102;79;21078;-70
2021/03/11 09:22:41;;;;;;;42.83;29.32;;;;;;;6.40;37.28;97825.19;1797097;79;21062;-70
2021/03/11 09:25:14;;;;;;;33.65;18.02;;;;;;;6.19;36.74;97829.60;1797196;79;21018;-70
2021/03/11 09:28:03;;;;;;;37.20;20.80;;;;;;;6.36;36.89;97830.83;1797139;79;21523;-70
2021/03/11 09:30:32;;;;;;;;;;;;;;;5.88;34.74;97825.77;1799804;79;21491;-71
2021/03/11 09:33:21;;;;;;;36.15;23.60;;;;;;;5.58;34.96;97815.00;1797316;79;20229;-71
2021/03/11 09:35:47;;;;;;;71.80;34.05;;;;;;;5.70;36.94;97804.09;1796695;79;21143;-71
2021/03/11 09:38:23;;;;;;;35.33;19.60;;;;;;;5.78;37.85;97806.32;1785299;80;21107;-71
2021/03/11 09:40:54;;;;;;;38.35;22.65;;;;;;;5.82;37.43;97806.64;1785217;80;21052;-70
2021/03/11 09:43:29;;;;;;;27.30;15.13;;;;;;;5.76;35.70;97804.96;1785214;80;21255;-71
2021/03/11 09:46:02;;;;;;;29.50;13.93;;;;;;;5.47;33.64;97795.80;1785114;79;21032;-72
2021/03/11 09:48:39;;;;;;;64.07;44.33;;;;;;;5.93;35.86;97793.06;1779262;80;21102;-70
2021/03/11 09:51:11;;;;;;;33.25;14.65;;;;;;;5.52;33.36;97780.24;1785135;80;21178;-70
2021/03/11 09:53:50;;;;;;;53.10;27.40;;;;;;;5.59;34.69;97770.11;1785168;80;21114;-71
2021/03/11 09:56:20;;;;;;;34.45;23.67;;;;;;;5.73;33.29;97759.23;1785344;80;21242;-71
2021/03/11 09:58:56;;;;;;;124.18;74.47;;;;;;;5.97;35.13;97758.38;1785119;80;21066;-71
2021/03/11 10:01:45;;;;;;;62.70;29.25;;;;;;;6.03;35.34;97752.52;1785158;80;21019;-70
2021/03/11 10:04:28;;;;;;;32.08;19.35;;;;;;;6.36;35.37;97746.86;1785243;80;21090;-72
2021/03/11 10:07:01;;;;;;;36.42;15.98;;;;;;;6.52;35.16;97730.27;1785220;79;21020;-71
2021/03/11 10:09:43;;;;;;;29.20;11.68;;;;;;;6.74;34.53;97722.03;1785137;80;21184;-71
2021/03/11 10:12:09;;;;;;;95.80;43.75;;;;;;;6.76;34.90;97710.48;1785164;80;21126;-71
2021/03/11 10:14:37;;;;;;;53.42;29.72;;;;;;;6.88;35.38;97694.09;1785130;80;21046;-71
2021/03/11 10:17:05;;;;;;;43.45;26.07;;;;;;;7.08;35.37;97686.06;1754805;80;21046;-71
2021/03/11 10:19:34;;;;;;;25.20;14.55;;;;;;;7.26;35.41;97672.12;1785343;80;21455;-72
2021/03/11 10:22:04;;;;;;;33.70;17.42;;;;;;;7.39;35.48;97673.48;1785262;80;21076;-71
2021/03/11 10:24:39;;;;;;;41.20;19.90;;;;;;;7.52;34.44;97663.54;1785090;80;21467;-71
2021/03/11 10:27:24;;;;;;;18.50;11.75;;;;;;;7.60;33.30;97661.63;1785222;80;21043;-70
2021/03/11 10:30:11;;;;;;;28.57;15.15;;;;;;;7.47;33.49;97662.17;1785152;80;21082;-71
2021/03/11 10:32:39;;;;;;;23.87;10.98;;;;;;;7.54;34.34;97665.42;1785141;80;21563;-71
2021/03/11 10:35:11;;;;;;;19.30;11.87;;;;;;;7.66;33.08;97657.06;1785373;80;21265;-70
2021/03/11 10:37:41;;;;;;;20.17;11.88;;;;;;;7.55;33.97;97649.52;1794628;79;21121;-71
2021/03/11 10:40:10;;;;;;;26.73;13.80;;;;;;;7.60;34.52;97640.59;1773040;79;21538;-70
2021/03/11 10:42:42;;;;;;;19.75;13.72;;;;;;;7.62;33.26;97650.06;1799763;79;21023;-70
2021/03/11 10:45:10;;;;;;;20.88;10.78;;;;;;;7.59;33.00;97649.77;1799770;79;21074;-70
2021/03/11 10:47:37;;;;;;;27.87;12.93;;;;;;;7.45;32.94;97646.81;1800003;79;22300;-71
2021/03/11 10:50:08;;;;;;;19.77;10.90;;;;;;;7.42;32.71;97650.02;1799581;79;21030;-70
2021/03/11 10:52:54;;;;;;;19.95;12.28;;;;;;;7.34;31.97;97641.13;1790153;79;21030;-71
2021/03/11 10:55:34;;;;;;;21.87;10.18;;;;;;;7.20;32.13;97636.00;1799613;79;21101;-72
2021/03/11 10:58:01;;;;;;;32.42;15.58;;;;;;;7.25;32.04;97631.41;1799646;79;21070;-70
2021/03/11 11:00:35;;;;;;;30.37;14.73;;;;;;;7.28;31.21;97633.59;1799743;79;21401;-70
2021/03/11 11:03:04;;;;;;;47.17;22.95;;;;;;;7.21;30.66;97622.80;1799585;79;21117;-71
2021/03/11 11:05:31;;;;;;;76.10;42.75;;;;;;;7.06;31.40;97620.87;1799763;79;21506;-71
2021/03/11 11:07:57;;;;;;;38.78;29.30;;;;;;;7.04;31.58;97613.59;1772957;79;21042;-71
2021/03/11 11:10:28;;;;;;;63.33;26.87;;;;;;;7.02;31.57;97615.76;1799736;79;21018;-71
2021/03/11 11:12:54;;;;;;;18.07;10.38;;;;;;;6.94;31.53;97612.23;1780111;80;21268;-71
2021/03/11 11:15:20;;;;;;;21.02;9.53;;;;;;;6.84;31.50;97612.22;1780709;80;21503;-71
2021/03/11 11:17:46;;;;;;;45.50;17.70;;;;;;;6.81;31.12;97604.11;1780625;80;21047;-71
2021/03/11 11:20:16;;;;;;;27.07;12.98;;;;;;;6.77;31.87;97604.38;1780768;80;21039;-71
2021/03/11 11:22:43;;;;;;;43.85;20.02;;;;;;;6.75;31.16;97595.22;1780746;80;21039;-71
2021/03/11 11:25:10;;;;;;;51.92;17.42;;;;;;;6.75;30.73;97591.19;1780891;80;22051;-71
2021/03/11 11:27:36;;;;;;;45.63;18.70;;;;;;;6.72;30.90;97589.55;1780815;80;21111;-71
2021/03/11 11:30:08;;;;;;;26.15;13.93;;;;;;;6.64;30.77;97567.98;1780827;80;21055;-71
2021/03/11 11:32:35;;;;;;;16.00;8.93;;;;;;;6.62;31.33;97573.36;1780796;80;21440;-70
2021/03/11 11:35:01;;;;;;;23.62;9.60;;;;;;;6.56;31.39;97570.37;1780848;80;21067;-70
2021/03/11 11:37:27;;;;;;;17.92;10.82;;;;;;;6.60;31.59;97573.63;1780755;80;21266;-70
2021/03/11 11:39:53;;;;;;;22.73;11.73;;;;;;;6.61;31.41;97565.02;1780848;80;21027;-70